Aviation Digital Data Service (ADDS)

Output produced by METARs form (1859 UTC 22 May 2019)
found at http://aviationweather.gov/metar/data/
 
TAF EDDH 221700Z 2218/2324 30012G22KT 9999 SCT030 
     BECMG 2218/2220 30007KT 
     BECMG 2220/2224 VRB02KT 
     PROB30 
     TEMPO 2300/2305 2500 BCFG 
     BECMG 2306/2308 24009KT 
     BECMG 2317/2319 24003KT